Time;durP1;ratioP1;P1;durP2;ratioP2;P2;SDS_P1;SDS_P2;PMS_P1;PMS_P2;Temp;Humidity;BMP_temperature;BMP_pressure;BME280_temperature;BME280_humidity;BME280_pressure;Samples;Min_cycle;Max_cycle;Signal;HPM_P1;HPM_P2
2021/09/12 00:01:59;;;;;;;2.10;1.60;;;;;;;;;;5028490;28;20639;-60
2021/09/12 00:04:24;;;;;;;2.63;1.65;;;;;;;;;;5027762;28;20026;-60
2021/09/12 00:06:50;;;;;;;2.10;1.50;;;;;;;;;;5028620;28;20030;-61
2021/09/12 00:09:16;;;;;;;2.72;1.80;;;;;;;;;;5033055;28;20459;-60
2021/09/12 00:11:41;;;;;;;3.20;2.15;;;;;;;;;;5032069;28;20537;-60
2021/09/12 00:14:06;;;;;;;2.60;1.90;;;;;;;;;;5031417;28;20057;-60
2021/09/12 00:16:32;;;;;;;2.67;1.88;;;;;;;;;;5032401;28;20041;-60
2021/09/12 00:18:57;;;;;;;3.55;1.77;;;;;;;;;;5031555;28;20033;-60
2021/09/12 00:21:23;;;;;;;2.58;1.40;;;;;;;;;;5031259;28;20060;-61
2021/09/12 00:23:48;;;;;;;2.25;1.63;;;;;;;;;;5031507;28;20441;-59
2021/09/12 00:26:14;;;;;;;6.57;2.05;;;;;;;;;;5028130;28;20033;-60
2021/09/12 00:28:39;;;;;;;2.50;1.80;;;;;;;;;;5030161;28;20041;-60
2021/09/12 00:31:04;;;;;;;2.55;1.27;;;;;;;;;;5031178;28;20034;-60
2021/09/12 00:33:31;;;;;;;2.60;1.75;;;;;;;;;;5030696;28;20061;-60
2021/09/12 00:35:58;;;;;;;4.32;1.95;;;;;;;;;;5031898;28;20092;-61
2021/09/12 00:38:23;;;;;;;3.30;2.45;;;;;;;;;;5013561;28;20033;-61
2021/09/12 00:40:49;;;;;;;1.77;1.27;;;;;;;;;;5031890;28;20430;-61
2021/09/12 00:43:14;;;;;;;1.85;1.45;;;;;;;;;;5030207;28;20034;-61
2021/09/12 00:45:39;;;;;;;3.92;2.70;;;;;;;;;;5031087;28;20041;-60
2021/09/12 00:48:10;;;;;;;2.83;2.00;;;;;;;;;;5028487;28;20026;-60
2021/09/12 00:50:35;;;;;;;3.65;2.15;;;;;;;;;;5030220;28;20097;-60
2021/09/12 00:53:02;;;;;;;2.38;1.77;;;;;;;;;;5030185;28;20040;-61
2021/09/12 00:55:29;;;;;;;2.80;2.05;;;;;;;;;;5026582;28;20041;-58
2021/09/12 00:57:56;;;;;;;2.65;2.03;;;;;;;;;;5028647;28;20039;-58
2021/09/12 01:00:21;;;;;;;2.90;1.48;;;;;;;;;;5027920;28;20048;-60
2021/09/12 01:02:47;;;;;;;2.22;1.48;;;;;;;;;;5011581;28;20422;-60
2021/09/12 01:05:13;;;;;;;2.20;1.50;;;;;;;;;;5027975;28;20041;-61
2021/09/12 01:07:40;;;;;;;2.88;2.05;;;;;;;;;;5028676;28;20042;-60
2021/09/12 01:10:07;;;;;;;2.40;1.60;;;;;;;;;;5046919;28;20112;-61
2021/09/12 01:12:33;;;;;;;2.25;1.42;;;;;;;;;;5030139;28;20112;-60
2021/09/12 01:14:59;;;;;;;3.47;1.88;;;;;;;;;;5029852;28;20117;-61
2021/09/12 01:17:28;;;;;;;5.13;2.20;;;;;;;;;;5027306;28;20053;-60
2021/09/12 01:19:54;;;;;;;8.63;2.03;;;;;;;;;;5027168;28;20129;-61
2021/09/12 01:22:19;;;;;;;7.80;2.08;;;;;;;;;;5028711;28;20443;-61
2021/09/12 01:24:44;;;;;;;2.67;1.98;;;;;;;;;;5029361;28;20091;-61
2021/09/12 01:27:10;;;;;;;2.08;1.40;;;;;;;;;;5030773;28;20029;-60
2021/09/12 01:29:36;;;;;;;2.50;1.95;;;;;;;;;;5027886;28;20033;-60
2021/09/12 01:32:02;;;;;;;13.07;2.45;;;;;;;;;;5025439;28;20103;-60
2021/09/12 01:34:27;;;;;;;2.55;1.58;;;;;;;;;;5025048;28;20112;-60
2021/09/12 01:36:53;;;;;;;3.20;2.08;;;;;;;;;;5028024;28;20128;-60
2021/09/12 01:39:19;;;;;;;2.20;1.45;;;;;;;;;;5027229;28;20402;-60
2021/09/12 01:41:44;;;;;;;2.40;1.73;;;;;;;;;;5028245;28;20137;-60
2021/09/12 01:44:11;;;;;;;2.65;1.77;;;;;;;;;;5028102;28;20033;-60
2021/09/12 01:46:38;;;;;;;2.13;1.63;;;;;;;;;;5026348;28;20657;-60
2021/09/12 01:49:06;;;;;;;2.17;1.55;;;;;;;;;;5021251;28;20432;-60
2021/09/12 01:51:31;;;;;;;2.63;1.48;;;;;;;;;;5027658;28;20090;-60
2021/09/12 01:53:57;;;;;;;2.90;1.30;;;;;;;;;;5028946;28;20041;-61
2021/09/12 01:56:22;;;;;;;2.25;1.42;;;;;;;;;;5030600;28;20091;-62
2021/09/12 01:58:48;;;;;;;2.50;1.80;;;;;;;;;;5029986;28;20336;-61
2021/09/12 02:01:13;;;;;;;2.45;1.77;;;;;;;;;;5030536;28;20037;-61
2021/09/12 02:03:39;;;;;;;2.45;1.63;;;;;;;;;;5030168;28;20042;-61
2021/09/12 02:06:04;;;;;;;1.98;1.50;;;;;;;;;;5030278;28;20040;-61
2021/09/12 02:08:29;;;;;;;2.42;1.60;;;;;;;;;;5029996;28;20037;-61
2021/09/12 02:10:55;;;;;;;2.38;1.67;;;;;;;;;;5030451;28;20046;-61
2021/09/12 02:13:20;;;;;;;1.95;1.30;;;;;;;;;;5029357;28;20396;-61
2021/09/12 02:15:46;;;;;;;2.67;1.75;;;;;;;;;;5022375;28;20530;-61
2021/09/12 02:18:12;;;;;;;2.42;1.58;;;;;;;;;;5027399;28;20105;-61
2021/09/12 02:20:38;;;;;;;1.77;1.20;;;;;;;;;;5029915;28;20075;-61
2021/09/12 02:23:04;;;;;;;2.97;1.92;;;;;;;;;;5029336;28;20108;-61
2021/09/12 02:25:30;;;;;;;2.38;1.63;;;;;;;;;;5028933;28;20026;-61
2021/09/12 02:27:55;;;;;;;4.35;2.42;;;;;;;;;;5029793;28;20106;-61
2021/09/12 02:30:21;;;;;;;4.07;1.92;;;;;;;;;;5029532;28;20132;-61
2021/09/12 02:32:46;;;;;;;2.60;1.55;;;;;;;;;;5028179;28;20075;-61
2021/09/12 02:35:11;;;;;;;13.93;1.65;;;;;;;;;;5029208;28;20867;-61
2021/09/12 02:37:37;;;;;;;2.58;1.60;;;;;;;;;;5029042;28;20033;-61
2021/09/12 02:40:04;;;;;;;2.50;1.67;;;;;;;;;;5028271;28;20045;-61
2021/09/12 02:42:29;;;;;;;2.42;1.50;;;;;;;;;;5024611;28;20060;-62
2021/09/12 02:44:54;;;;;;;3.47;2.10;;;;;;;;;;5024589;28;20029;-61
2021/09/12 02:47:20;;;;;;;3.60;1.80;;;;;;;;;;5026215;28;20025;-61
2021/09/12 02:49:45;;;;;;;2.17;1.70;;;;;;;;;;5027497;28;20043;-61
2021/09/12 02:52:11;;;;;;;3.45;2.28;;;;;;;;;;5028534;28;20337;-61
2021/09/12 02:54:37;;;;;;;2.60;1.88;;;;;;;;;;5029302;28;20045;-60
2021/09/12 02:57:03;;;;;;;3.15;2.53;;;;;;;;;;5028520;28;20045;-60
2021/09/12 02:59:28;;;;;;;2.75;2.03;;;;;;;;;;5028214;28;20061;-60
2021/09/12 03:01:54;;;;;;;2.13;1.60;;;;;;;;;;5027611;28;20522;-60
2021/09/12 03:04:19;;;;;;;2.28;1.77;;;;;;;;;;5028888;28;20029;-60
2021/09/12 03:06:44;;;;;;;2.65;2.22;;;;;;;;;;5029434;28;20052;-61
2021/09/12 03:09:10;;;;;;;2.63;1.80;;;;;;;;;;5027480;28;20374;-61
2021/09/12 03:11:35;;;;;;;3.13;1.67;;;;;;;;;;5029328;28;20359;-61
2021/09/12 03:14:00;;;;;;;1.98;1.40;;;;;;;;;;5018440;28;20088;-61
2021/09/12 03:16:26;;;;;;;3.10;1.70;;;;;;;;;;5027130;28;20045;-61
2021/09/12 03:18:52;;;;;;;2.30;1.60;;;;;;;;;;5028335;28;20151;-61
2021/09/12 03:21:18;;;;;;;2.55;2.13;;;;;;;;;;5028816;28;20044;-61
2021/09/12 03:23:45;;;;;;;3.05;1.83;;;;;;;;;;5028979;28;20066;-61
2021/09/12 03:26:10;;;;;;;2.97;2.05;;;;;;;;;;5026767;28;20057;-61
2021/09/12 03:28:36;;;;;;;5.13;2.15;;;;;;;;;;5028456;28;20279;-61
2021/09/12 03:31:02;;;;;;;3.13;2.05;;;;;;;;;;5028003;28;20033;-61
2021/09/12 03:33:28;;;;;;;3.10;2.03;;;;;;;;;;5028018;28;20050;-61
2021/09/12 03:35:53;;;;;;;2.83;1.77;;;;;;;;;;5028662;28;20475;-61
2021/09/12 03:38:19;;;;;;;5.57;2.75;;;;;;;;;;5005508;28;20037;-61
2021/09/12 03:40:45;;;;;;;2.47;1.92;;;;;;;;;;5027194;28;20427;-61
2021/09/12 03:43:10;;;;;;;2.50;1.88;;;;;;;;;;5016773;28;20033;-61
2021/09/12 03:45:35;;;;;;;2.45;1.75;;;;;;;;;;5032831;28;20481;-59
2021/09/12 03:48:02;;;;;;;2.85;1.77;;;;;;;;;;5032602;28;20053;-59
2021/09/12 03:50:28;;;;;;;2.05;1.55;;;;;;;;;;5030906;28;20072;-59
2021/09/12 03:52:54;;;;;;;3.88;2.25;;;;;;;;;;5032461;28;20589;-59
2021/09/12 03:55:19;;;;;;;2.80;1.95;;;;;;;;;;5032633;28;20039;-59
2021/09/12 03:57:45;;;;;;;3.17;2.20;;;;;;;;;;5032400;28;20037;-58
2021/09/12 04:00:11;;;;;;;2.92;2.13;;;;;;;;;;5030402;28;20415;-59
2021/09/12 04:02:36;;;;;;;2.47;1.83;;;;;;;;;;5032019;28;20048;-59
2021/09/12 04:05:02;;;;;;;2.88;2.00;;;;;;;;;;5030990;28;20021;-59
2021/09/12 04:07:27;;;;;;;3.03;2.08;;;;;;;;;;5031706;28;20063;-59
2021/09/12 04:09:53;;;;;;;2.40;1.70;;;;;;;;;;5031718;28;20044;-58
2021/09/12 04:12:18;;;;;;;3.00;1.77;;;;;;;;;;5030002;28;20463;-61
2021/09/12 04:14:43;;;;;;;2.92;1.88;;;;;;;;;;5030132;28;20044;-60
2021/09/12 04:17:09;;;;;;;2.78;2.13;;;;;;;;;;5030900;28;20036;-59
2021/09/12 04:19:34;;;;;;;2.63;1.58;;;;;;;;;;5029481;28;20037;-59
2021/09/12 04:22:00;;;;;;;2.65;1.92;;;;;;;;;;5030694;28;20061;-59
2021/09/12 04:24:26;;;;;;;3.55;2.13;;;;;;;;;;5031114;28;20418;-60
2021/09/12 04:26:51;;;;;;;2.08;1.63;;;;;;;;;;5030674;28;20041;-60
2021/09/12 04:29:19;;;;;;;2.90;1.70;;;;;;;;;;5031866;28;20034;-59
2021/09/12 04:31:45;;;;;;;2.05;1.40;;;;;;;;;;5031562;28;20112;-59
2021/09/12 04:34:10;;;;;;;2.75;1.73;;;;;;;;;;5030921;28;20112;-59
2021/09/12 04:36:35;;;;;;;5.40;2.58;;;;;;;;;;5031885;28;20360;-59
2021/09/12 04:39:02;;;;;;;2.35;1.67;;;;;;;;;;5031315;28;20029;-59
2021/09/12 04:41:27;;;;;;;2.78;1.98;;;;;;;;;;5030859;28;20337;-59
2021/09/12 04:43:52;;;;;;;2.85;1.75;;;;;;;;;;5029531;28;20063;-61
2021/09/12 04:46:18;;;;;;;2.53;2.03;;;;;;;;;;5031545;28;20021;-59
2021/09/12 04:48:43;;;;;;;2.00;1.55;;;;;;;;;;5031743;28;20082;-59
2021/09/12 04:51:09;;;;;;;2.33;1.60;;;;;;;;;;5030615;28;20037;-59
2021/09/12 04:53:34;;;;;;;2.33;1.58;;;;;;;;;;5028172;28;20367;-59
2021/09/12 04:55:59;;;;;;;2.92;1.83;;;;;;;;;;5031155;28;20021;-59
2021/09/12 04:58:25;;;;;;;2.45;1.55;;;;;;;;;;5031619;28;20095;-59
2021/09/12 05:00:50;;;;;;;2.60;1.63;;;;;;;;;;5031038;28;20052;-59
2021/09/12 05:03:16;;;;;;;1.90;1.30;;;;;;;;;;5023246;28;20520;-59
2021/09/12 05:05:41;;;;;;;3.30;2.05;;;;;;;;;;5031527;28;20637;-61
2021/09/12 05:08:06;;;;;;;3.33;2.08;;;;;;;;;;5030927;28;20064;-61
2021/09/12 05:10:32;;;;;;;4.82;2.00;;;;;;;;;;5030090;28;20140;-59
2021/09/12 05:12:57;;;;;;;2.20;1.63;;;;;;;;;;5028533;28;20037;-61
2021/09/12 05:15:23;;;;;;;2.80;2.10;;;;;;;;;;5031082;28;20530;-61
2021/09/12 05:17:48;;;;;;;2.88;1.58;;;;;;;;;;5030481;28;20046;-59
2021/09/12 05:20:14;;;;;;;2.95;2.00;;;;;;;;;;5030543;28;20037;-59
2021/09/12 05:22:39;;;;;;;2.00;1.42;;;;;;;;;;5031034;28;20488;-61
2021/09/12 05:25:06;;;;;;;2.85;1.88;;;;;;;;;;5030186;28;20033;-60
2021/09/12 05:27:31;;;;;;;3.00;1.58;;;;;;;;;;5031038;28;20036;-60
2021/09/12 05:29:57;;;;;;;2.88;1.50;;;;;;;;;;5030650;28;20334;-60
2021/09/12 05:32:23;;;;;;;3.13;2.03;;;;;;;;;;5030800;28;20045;-60
2021/09/12 05:34:48;;;;;;;2.70;1.75;;;;;;;;;;5029069;28;20056;-60
2021/09/12 05:37:14;;;;;;;2.78;1.92;;;;;;;;;;5026014;28;20036;-61
2021/09/12 05:39:39;;;;;;;1.92;1.33;;;;;;;;;;5027921;28;20597;-60
2021/09/12 05:42:05;;;;;;;2.00;1.40;;;;;;;;;;5028425;28;20124;-60
2021/09/12 05:44:31;;;;;;;2.10;1.65;;;;;;;;;;5029839;28;20451;-60
2021/09/12 05:46:58;;;;;;;2.15;1.58;;;;;;;;;;5030201;28;20029;-60
2021/09/12 05:49:24;;;;;;;2.85;1.67;;;;;;;;;;5029654;28;20049;-60
2021/09/12 05:51:50;;;;;;;2.88;1.90;;;;;;;;;;5029787;28;20067;-60
2021/09/12 05:54:15;;;;;;;2.75;2.13;;;;;;;;;;5030138;28;20029;-60
2021/09/12 05:56:40;;;;;;;2.72;2.10;;;;;;;;;;5030449;28;20033;-60
2021/09/12 05:59:06;;;;;;;4.75;2.42;;;;;;;;;;5030058;28;20044;-60
2021/09/12 06:01:32;;;;;;;4.80;3.38;;;;;;;;;;5026771;28;20124;-61
2021/09/12 06:03:57;;;;;;;2.50;1.88;;;;;;;;;;5027078;28;20055;-61
2021/09/12 06:06:23;;;;;;;2.67;1.95;;;;;;;;;;5028766;28;20501;-61
2021/09/12 06:08:48;;;;;;;6.93;2.72;;;;;;;;;;5028524;28;20094;-61
2021/09/12 06:11:13;;;;;;;2.00;1.40;;;;;;;;;;5029843;28;20410;-60
2021/09/12 06:13:39;;;;;;;2.08;1.52;;;;;;;;;;5029976;28;20087;-60
2021/09/12 06:16:06;;;;;;;3.05;2.03;;;;;;;;;;5029456;28;20473;-61
2021/09/12 06:18:33;;;;;;;2.50;1.70;;;;;;;;;;5024323;28;20526;-61
2021/09/12 06:20:58;;;;;;;3.10;2.17;;;;;;;;;;5022180;28;20034;-60
2021/09/12 06:23:24;;;;;;;3.17;2.08;;;;;;;;;;5024776;28;20363;-61
2021/09/12 06:25:49;;;;;;;2.30;1.70;;;;;;;;;;5024486;28;20025;-61
2021/09/12 06:28:15;;;;;;;2.80;1.95;;;;;;;;;;5028347;28;20037;-61
2021/09/12 06:30:40;;;;;;;2.92;2.05;;;;;;;;;;5029177;28;20029;-61
2021/09/12 06:33:06;;;;;;;7.03;2.15;;;;;;;;;;5025620;28;20092;-61
2021/09/12 06:35:31;;;;;;;2.90;2.08;;;;;;;;;;5027190;28;20611;-60
2021/09/12 06:37:57;;;;;;;4.30;2.97;;;;;;;;;;5020162;28;20161;-61
2021/09/12 06:40:23;;;;;;;3.17;2.25;;;;;;;;;;5019873;28;20037;-61
2021/09/12 06:42:49;;;;;;;4.07;2.63;;;;;;;;;;5019966;28;20459;-60
2021/09/12 06:45:15;;;;;;;2.97;2.17;;;;;;;;;;5018501;28;20167;-61
2021/09/12 06:47:40;;;;;;;3.83;2.92;;;;;;;;;;5022210;28;20421;-60
2021/09/12 06:50:06;;;;;;;3.83;2.90;;;;;;;;;;5021026;28;20151;-61
2021/09/12 06:52:32;;;;;;;2.67;1.92;;;;;;;;;;5019960;28;20037;-61
2021/09/12 06:54:57;;;;;;;3.15;2.30;;;;;;;;;;5018556;28;20036;-60
2021/09/12 06:57:23;;;;;;;6.32;2.38;;;;;;;;;;5019816;28;20030;-60
2021/09/12 06:59:49;;;;;;;3.50;2.17;;;;;;;;;;5014175;28;20029;-61
2021/09/12 07:02:14;;;;;;;2.67;1.77;;;;;;;;;;5020436;28;20029;-60
2021/09/12 07:04:39;;;;;;;3.17;2.50;;;;;;;;;;5014261;28;20052;-60
2021/09/12 07:07:05;;;;;;;3.20;1.90;;;;;;;;;;5012964;28;20367;-60
2021/09/12 07:09:30;;;;;;;3.30;2.20;;;;;;;;;;5015211;28;20039;-60
2021/09/12 07:11:56;;;;;;;2.65;2.00;;;;;;;;;;5020070;28;20029;-60
2021/09/12 07:14:21;;;;;;;4.15;2.70;;;;;;;;;;5011211;28;20029;-60
2021/09/12 07:16:47;;;;;;;3.38;2.58;;;;;;;;;;5015754;28;20038;-60
2021/09/12 07:19:12;;;;;;;3.80;2.58;;;;;;;;;;5025728;28;20053;-60
2021/09/12 07:21:37;;;;;;;3.80;2.55;;;;;;;;;;5027675;28;20044;-60
2021/09/12 07:24:04;;;;;;;2.70;2.22;;;;;;;;;;5027518;28;20033;-59
2021/09/12 07:26:29;;;;;;;3.20;2.45;;;;;;;;;;5025666;28;20411;-61
2021/09/12 07:28:54;;;;;;;3.55;2.60;;;;;;;;;;5026437;28;20043;-61
2021/09/12 07:31:20;;;;;;;2.55;1.92;;;;;;;;;;5026868;28;20025;-61
2021/09/12 07:33:45;;;;;;;13.15;2.08;;;;;;;;;;5023024;28;20034;-61
2021/09/12 07:36:11;;;;;;;2.80;2.30;;;;;;;;;;5027838;28;20482;-61
2021/09/12 07:38:36;;;;;;;2.90;2.15;;;;;;;;;;5023375;28;20022;-61
2021/09/12 07:41:01;;;;;;;2.30;1.70;;;;;;;;;;5028129;28;20082;-61
2021/09/12 07:43:27;;;;;;;2.65;2.00;;;;;;;;;;5026643;28;20051;-61
2021/09/12 07:45:52;;;;;;;2.85;2.08;;;;;;;;;;5028341;28;20087;-61
2021/09/12 07:48:17;;;;;;;4.07;2.72;;;;;;;;;;5028832;28;20030;-61
2021/09/12 07:50:43;;;;;;;3.10;2.35;;;;;;;;;;5027557;28;20442;-61
2021/09/12 07:53:09;;;;;;;2.85;2.33;;;;;;;;;;5028481;28;20147;-61
2021/09/12 07:55:35;;;;;;;3.60;2.65;;;;;;;;;;5028616;28;20030;-61
2021/09/12 07:58:00;;;;;;;2.80;2.40;;;;;;;;;;5028410;28;20053;-61
2021/09/12 08:00:26;;;;;;;4.55;2.25;;;;;;;;;;5027829;28;20470;-61
2021/09/12 08:02:51;;;;;;;3.25;2.25;;;;;;;;;;5028447;28;20165;-61
2021/09/12 08:05:17;;;;;;;3.95;1.95;;;;;;;;;;5027486;28;20026;-61
2021/09/12 08:07:42;;;;;;;2.63;2.08;;;;;;;;;;5027348;28;20037;-61
2021/09/12 08:10:08;;;;;;;3.15;2.40;;;;;;;;;;5027121;28;20417;-61
2021/09/12 08:12:33;;;;;;;3.10;2.10;;;;;;;;;;5027481;28;20174;-61
2021/09/12 08:14:59;;;;;;;2.72;2.28;;;;;;;;;;5028219;28;20087;-61
2021/09/12 08:17:24;;;;;;;3.58;2.58;;;;;;;;;;5028243;28;20529;-60
2021/09/12 08:19:49;;;;;;;8.77;2.42;;;;;;;;;;5028369;28;20043;-60
2021/09/12 08:22:15;;;;;;;2.75;2.17;;;;;;;;;;5028296;28;20309;-61
2021/09/12 08:24:40;;;;;;;3.10;2.22;;;;;;;;;;5028469;28;20031;-60
2021/09/12 08:27:06;;;;;;;2.80;2.20;;;;;;;;;;5025668;28;20025;-60
2021/09/12 08:29:32;;;;;;;2.75;2.05;;;;;;;;;;5031276;28;20038;-60
2021/09/12 08:31:57;;;;;;;2.90;2.42;;;;;;;;;;5032048;28;20041;-61
2021/09/12 08:34:24;;;;;;;2.97;2.63;;;;;;;;;;5031720;28;20041;-59
2021/09/12 08:36:50;;;;;;;3.60;2.83;;;;;;;;;;5031774;28;20053;-59
2021/09/12 08:39:16;;;;;;;4.07;2.78;;;;;;;;;;5028869;28;20033;-59
2021/09/12 08:41:41;;;;;;;3.25;2.72;;;;;;;;;;5031770;28;20419;-59
2021/09/12 08:44:08;;;;;;;2.78;2.25;;;;;;;;;;5030894;28;20022;-59
2021/09/12 08:46:33;;;;;;;2.88;2.28;;;;;;;;;;5030918;28;20116;-59
2021/09/12 08:48:59;;;;;;;3.40;2.90;;;;;;;;;;5031298;28;20105;-59
2021/09/12 08:51:24;;;;;;;2.80;2.40;;;;;;;;;;5031866;28;20088;-59
2021/09/12 08:53:50;;;;;;;3.17;2.38;;;;;;;;;;5030581;28;20033;-59
2021/09/12 08:56:16;;;;;;;4.32;3.10;;;;;;;;;;5026789;28;20029;-59
2021/09/12 08:58:41;;;;;;;3.15;2.63;;;;;;;;;;5030927;28;20029;-59
2021/09/12 09:01:07;;;;;;;3.03;2.38;;;;;;;;;;5029896;28;20131;-59
2021/09/12 09:03:37;;;;;;;2.97;2.45;;;;;;;;;;5029189;28;20046;-60
2021/09/12 09:06:17;;;;;;;3.17;2.45;;;;;;;;;;5030649;28;20034;-60
2021/09/12 09:08:54;;;;;;;2.70;2.08;;;;;;;;;;5031262;28;20089;-60
2021/09/12 09:11:36;;;;;;;3.05;2.63;;;;;;;;;;5032224;28;20037;-61
2021/09/12 09:14:15;;;;;;;2.85;2.30;;;;;;;;;;5029078;28;20033;-60
2021/09/12 09:16:42;;;;;;;3.20;2.47;;;;;;;;;;5030742;28;20831;-60
2021/09/12 09:19:08;;;;;;;2.95;2.25;;;;;;;;;;5030632;28;20049;-60
2021/09/12 09:21:36;;;;;;;3.35;2.65;;;;;;;;;;5031276;28;20124;-60
2021/09/12 09:24:07;;;;;;;3.22;2.72;;;;;;;;;;5030997;28;20096;-60
2021/09/12 09:26:41;;;;;;;3.35;2.92;;;;;;;;;;5026765;28;20057;-59
2021/09/12 09:29:07;;;;;;;3.70;2.75;;;;;;;;;;5029036;28;20048;-61
2021/09/12 09:31:33;;;;;;;2.80;2.45;;;;;;;;;;5031377;28;20041;-61
2021/09/12 09:34:17;;;;;;;3.03;2.72;;;;;;;;;;5030542;28;20034;-60
2021/09/12 09:36:43;;;;;;;3.58;2.67;;;;;;;;;;5030443;28;20052;-60
2021/09/12 09:39:09;;;;;;;2.90;2.47;;;;;;;;;;5030780;28;20033;-60
2021/09/12 09:41:36;;;;;;;3.25;2.88;;;;;;;;;;5029341;28;20113;-60
2021/09/12 09:44:09;;;;;;;3.13;2.38;;;;;;;;;;5025589;28;20033;-60
2021/09/12 09:46:40;;;;;;;2.90;2.28;;;;;;;;;;5027134;28;20498;-60
2021/09/12 09:49:27;;;;;;;2.72;2.25;;;;;;;;;;5029462;28;20037;-59
2021/09/12 09:51:55;;;;;;;2.70;2.40;;;;;;;;;;5029117;28;20072;-59
2021/09/12 09:54:26;;;;;;;2.90;2.47;;;;;;;;;;5026796;28;20450;-59
2021/09/12 09:56:52;;;;;;;2.55;2.08;;;;;;;;;;5027666;28;20048;-59
2021/09/12 09:59:21;;;;;;;3.08;2.40;;;;;;;;;;5028297;28;20101;-59
2021/09/12 10:01:51;;;;;;;3.10;2.65;;;;;;;;;;5027386;28;20658;-59
2021/09/12 10:04:26;;;;;;;3.08;2.38;;;;;;;;;;5030149;28;20398;-59
2021/09/12 10:06:52;;;;;;;3.35;2.78;;;;;;;;;;5027931;28;20041;-59
2021/09/12 10:09:18;;;;;;;3.05;2.45;;;;;;;;;;5025451;28;20025;-59
2021/09/12 10:11:50;;;;;;;2.90;2.55;;;;;;;;;;5029208;28;20029;-59
2021/09/12 10:14:21;;;;;;;3.00;2.70;;;;;;;;;;5029620;28;20033;-59
2021/09/12 10:16:48;;;;;;;4.28;2.72;;;;;;;;;;5029073;28;20451;-59
2021/09/12 10:19:33;;;;;;;3.53;3.22;;;;;;;;;;5029223;28;20036;-59
2021/09/12 10:22:09;;;;;;;4.07;3.60;;;;;;;;;;5029597;28;20041;-59
2021/09/12 10:24:34;;;;;;;3.10;2.70;;;;;;;;;;5030164;28;20581;-59
2021/09/12 10:27:38;;;;;;;3.47;3.17;;;;;;;;;;5029627;28;20116;-59
2021/09/12 10:30:21;;;;;;;3.28;2.97;;;;;;;;;;5029223;28;20048;-59
2021/09/12 10:32:50;;;;;;;3.22;2.92;;;;;;;;;;5029437;28;20029;-59
2021/09/12 10:35:26;;;;;;;3.08;2.47;;;;;;;;;;5027709;28;20070;-59
2021/09/12 10:38:02;;;;;;;3.50;3.20;;;;;;;;;;5028551;28;20104;-59
2021/09/12 10:40:46;;;;;;;3.75;3.45;;;;;;;;;;5023393;28;20120;-59
2021/09/12 10:43:24;;;;;;;3.40;3.10;;;;;;;;;;5026778;28;20029;-59
2021/09/12 10:46:02;;;;;;;3.80;3.50;;;;;;;;;;5029685;28;20021;-59
2021/09/12 10:48:50;;;;;;;3.70;3.40;;;;;;;;;;5029090;28;20719;-59
2021/09/12 10:51:18;;;;;;;3.75;3.45;;;;;;;;;;5015977;28;20065;-58
2021/09/12 10:53:47;;;;;;;4.00;3.70;;;;;;;;;;5029160;28;20039;-59
2021/09/12 10:56:16;;;;;;;4.22;3.83;;;;;;;;;;5024967;28;20037;-60
2021/09/12 10:58:42;;;;;;;4.35;4.05;;;;;;;;;;5028844;28;20458;-60
2021/09/12 11:01:11;;;;;;;4.28;3.88;;;;;;;;;;5028744;28;20038;-60
2021/09/12 11:03:37;;;;;;;4.45;4.05;;;;;;;;;;5028120;28;20036;-59
2021/09/12 11:06:03;;;;;;;4.45;4.15;;;;;;;;;;5028980;28;20033;-59
2021/09/12 11:08:37;;;;;;;3.35;3.05;;;;;;;;;;5025944;28;20065;-59
2021/09/12 11:11:04;;;;;;;4.28;3.95;;;;;;;;;;5026327;28;20109;-62
2021/09/12 11:13:30;;;;;;;4.40;4.00;;;;;;;;;;5028125;28;20033;-60
2021/09/12 11:16:18;;;;;;;4.75;4.38;;;;;;;;;;5026621;28;20064;-59
2021/09/12 11:18:43;;;;;;;4.13;3.80;;;;;;;;;;5028084;28;20047;-59
2021/09/12 11:21:09;;;;;;;4.60;4.22;;;;;;;;;;5026479;28;20594;-60
2021/09/12 11:23:35;;;;;;;4.97;4.60;;;;;;;;;;5028325;28;20033;-59
2021/09/12 11:26:01;;;;;;;5.05;4.65;;;;;;;;;;5027526;28;20040;-59
2021/09/12 11:28:29;;;;;;;6.25;4.82;;;;;;;;;;5028338;28;20033;-60
2021/09/12 11:30:55;;;;;;;5.97;5.57;;;;;;;;;;5028121;28;20446;-59
2021/09/12 11:33:21;;;;;;;4.93;4.53;;;;;;;;;;5028048;28;20040;-59
2021/09/12 11:36:00;;;;;;;4.55;4.15;;;;;;;;;;5028258;28;20025;-59
2021/09/12 11:38:27;;;;;;;3.60;3.30;;;;;;;;;;5028215;28;20025;-60
2021/09/12 11:40:57;;;;;;;4.85;4.32;;;;;;;;;;5029241;28;20072;-59
2021/09/12 11:43:23;;;;;;;3.13;2.80;;;;;;;;;;5027916;28;20041;-59
2021/09/12 11:46:14;;;;;;;4.70;4.25;;;;;;;;;;5028307;28;20104;-58
2021/09/12 11:48:52;;;;;;;4.63;4.28;;;;;;;;;;5028405;28;20035;-59
2021/09/12 11:51:32;;;;;;;5.75;5.25;;;;;;;;;;5029262;28;20375;-59
2021/09/12 11:54:27;;;;;;;5.00;4.60;;;;;;;;;;5026401;28;20847;-58
2021/09/12 11:57:00;;;;;;;4.40;4.00;;;;;;;;;;5028005;28;20037;-60
2021/09/12 11:59:27;;;;;;;5.05;4.65;;;;;;;;;;5028520;28;20031;-60
2021/09/12 12:01:53;;;;;;;5.00;4.60;;;;;;;;;;5026894;28;20038;-60
2021/09/12 12:04:20;;;;;;;4.95;4.57;;;;;;;;;;5031261;28;20025;-59
2021/09/12 12:06:50;;;;;;;5.35;4.95;;;;;;;;;;5031672;28;20030;-59
2021/09/12 12:09:19;;;;;;;5.50;5.10;;;;;;;;;;5031022;28;20029;-59
2021/09/12 12:11:47;;;;;;;5.35;4.95;;;;;;;;;;5031786;28;20025;-59
2021/09/12 12:14:24;;;;;;;5.38;4.97;;;;;;;;;;5030798;28;20041;-59
2021/09/12 12:16:51;;;;;;;5.20;4.80;;;;;;;;;;5029702;28;20033;-59
2021/09/12 12:19:17;;;;;;;4.65;4.30;;;;;;;;;;5028012;28;20446;-59
2021/09/12 12:21:44;;;;;;;5.03;4.63;;;;;;;;;;5028267;28;20490;-59
2021/09/12 12:24:10;;;;;;;5.15;4.75;;;;;;;;;;5029092;28;20040;-59
2021/09/12 12:26:44;;;;;;;5.55;5.15;;;;;;;;;;5030186;28;20029;-59
2021/09/12 12:29:10;;;;;;;5.32;4.93;;;;;;;;;;5028337;28;20033;-59
2021/09/12 12:31:36;;;;;;;4.68;4.28;;;;;;;;;;5030078;28;20104;-59
2021/09/12 12:34:02;;;;;;;5.35;4.95;;;;;;;;;;5030369;28;20111;-59
2021/09/12 12:36:27;;;;;;;6.05;5.65;;;;;;;;;;5028976;28;20033;-60
2021/09/12 12:38:53;;;;;;;6.07;5.60;;;;;;;;;;5031962;28;20048;-60
2021/09/12 12:41:21;;;;;;;6.45;6.00;;;;;;;;;;5029954;28;20029;-60
2021/09/12 12:43:47;;;;;;;9.07;5.53;;;;;;;;;;5029586;28;20132;-58
2021/09/12 12:46:13;;;;;;;4.25;3.85;;;;;;;;;;5026129;28;20034;-58
2021/09/12 12:48:44;;;;;;;5.32;4.93;;;;;;;;;;5030513;28;20100;-58
2021/09/12 12:51:14;;;;;;;4.28;3.97;;;;;;;;;;5026761;28;20105;-58
2021/09/12 12:53:45;;;;;;;5.60;5.20;;;;;;;;;;5027032;28;20105;-58
2021/09/12 12:56:15;;;;;;;4.75;4.35;;;;;;;;;;5027420;28;20296;-59
2021/09/12 12:58:41;;;;;;;4.43;4.07;;;;;;;;;;5027427;28;20791;-59
2021/09/12 13:01:07;;;;;;;4.00;3.70;;;;;;;;;;5026609;28;20297;-59
2021/09/12 13:03:34;;;;;;;4.78;4.38;;;;;;;;;;5027032;28;20119;-59
2021/09/12 13:06:10;;;;;;;3.80;3.40;;;;;;;;;;5027503;28;20025;-59
2021/09/12 13:08:37;;;;;;;4.68;4.28;;;;;;;;;;5027418;28;20036;-59
2021/09/12 13:11:03;;;;;;;4.47;4.15;;;;;;;;;;5027191;28;20518;-59
2021/09/12 13:13:29;;;;;;;5.18;4.78;;;;;;;;;;5030237;28;20049;-59
2021/09/12 13:15:55;;;;;;;5.07;4.68;;;;;;;;;;5031091;28;20033;-59
2021/09/12 13:18:20;;;;;;;4.55;4.15;;;;;;;;;;5029449;28;20029;-59
2021/09/12 13:20:48;;;;;;;5.68;5.28;;;;;;;;;;5031274;28;20084;-59
2021/09/12 13:23:13;;;;;;;5.88;5.38;;;;;;;;;;5024931;28;20041;-59
2021/09/12 13:25:39;;;;;;;4.75;4.35;;;;;;;;;;5027485;28;20056;-59
2021/09/12 13:28:04;;;;;;;4.72;4.35;;;;;;;;;;5028753;28;20041;-60
2021/09/12 13:30:32;;;;;;;5.82;5.43;;;;;;;;;;5029822;28;20044;-59
2021/09/12 13:32:57;;;;;;;5.07;4.68;;;;;;;;;;5030491;28;20026;-59
2021/09/12 13:35:23;;;;;;;4.75;4.40;;;;;;;;;;5030140;28;20043;-59
2021/09/12 13:37:49;;;;;;;5.00;4.60;;;;;;;;;;5030130;28;20060;-59
2021/09/12 13:40:15;;;;;;;4.85;4.45;;;;;;;;;;5030043;28;20228;-59
2021/09/12 13:42:42;;;;;;;5.65;5.25;;;;;;;;;;5030437;28;20025;-59
2021/09/12 13:45:09;;;;;;;5.30;4.90;;;;;;;;;;5029994;28;20021;-59
2021/09/12 13:47:34;;;;;;;5.13;4.72;;;;;;;;;;5030924;28;20036;-59
2021/09/12 13:50:00;;;;;;;5.60;5.13;;;;;;;;;;5030024;28;20034;-59
2021/09/12 13:52:25;;;;;;;5.38;4.97;;;;;;;;;;5030653;28;20037;-59
2021/09/12 13:54:51;;;;;;;5.60;5.20;;;;;;;;;;5030745;28;20451;-59
2021/09/12 13:57:16;;;;;;;5.13;4.72;;;;;;;;;;5030026;28;20029;-59
2021/09/12 13:59:42;;;;;;;5.80;5.40;;;;;;;;;;5030116;28;20104;-59
2021/09/12 14:02:08;;;;;;;6.10;5.70;;;;;;;;;;5030435;28;20029;-59
2021/09/12 14:04:35;;;;;;;6.15;5.75;;;;;;;;;;5030341;28;20048;-59
2021/09/12 14:07:00;;;;;;;5.90;5.50;;;;;;;;;;5029620;28;20029;-59
2021/09/12 14:09:26;;;;;;;5.75;5.35;;;;;;;;;;5030128;28;20076;-59
2021/09/12 14:11:51;;;;;;;5.97;5.50;;;;;;;;;;5029765;28;20037;-59
2021/09/12 14:14:17;;;;;;;6.05;5.65;;;;;;;;;;5029128;28;20154;-59
2021/09/12 14:16:43;;;;;;;5.50;5.10;;;;;;;;;;5028508;28;20041;-59
2021/09/12 14:19:09;;;;;;;5.88;5.47;;;;;;;;;;5028694;28;20037;-59
2021/09/12 14:21:34;;;;;;;5.60;5.10;;;;;;;;;;5030612;28;20033;-59
2021/09/12 14:24:00;;;;;;;5.22;4.82;;;;;;;;;;5021856;28;20044;-59
2021/09/12 14:26:26;;;;;;;5.55;5.15;;;;;;;;;;5029391;28;20039;-59
2021/09/12 14:28:52;;;;;;;5.55;5.05;;;;;;;;;;5030072;28;20030;-59
2021/09/12 14:31:19;;;;;;;5.75;5.28;;;;;;;;;;5030023;28;20037;-59
2021/09/12 14:33:48;;;;;;;5.55;5.15;;;;;;;;;;5030027;28;20075;-59
2021/09/12 14:36:14;;;;;;;4.88;4.47;;;;;;;;;;5029698;28;20090;-59
2021/09/12 14:38:39;;;;;;;5.32;4.93;;;;;;;;;;5030284;28;20025;-59
2021/09/12 14:41:04;;;;;;;5.68;5.20;;;;;;;;;;5028616;28;20108;-59
2021/09/12 14:43:33;;;;;;;5.00;4.60;;;;;;;;;;5027393;28;20029;-59